Weather at Avesta Airport

Public forecast

Using degrees Celsius for public forecast. Weather courtesy of forecast.io.

Closest aviation weather report (METAR) to Avesta Airport

Closest report is Dala Airport, 23.2 nm (42.9 km) NW.

2023/02/01 18:50 (retrieved 21 minutes ago)

ESSD 011850Z AUTO 31004KT 9999 NCD M08/M10 Q0998

Closest aviation forecast (TAF) to Avesta Airport

Closest forecast is Stockholm-Arlanda Airport, 62.7 nm (116.1 km) ESE.

2023/02/01 18:25 Ammendment (retrieved 46 minutes ago)

TAF AMD ESSA 011818Z 0118/0218 01006KT 9999 BKN025 TEMPO 0118/0202 2500 -SN BKN006 PROB40 0202/0208 SN BKN010